European Highlander — C6SN6 — position and weather

sailwx.info

Track history (hours):
 
Tides and Currents Weather Stations Pressure Air Temp Water Temp Dewpoint Dewpoint Depression Visibility Wind Speed Wind Dir Waves Ship Positions

European Highlander

Operator: P&O Irish Sea Ltd

Last reported at 2018-Feb-19 09:26 UTC. Time now 2018-Feb-19 10:15 UTC.
Position N 54°58' W 005°01'.

Length 161 m; draft 5.2 m.

Type: Passenger vessel. MMSI: 311404000.

Date/timePositionNaut miles runAvg speedWind from/ knotsBaromVisibWave heightAir tempDewpointWater temp
2018-Feb-19 09:26N 54°58' W 005°01'510.1
2018-Feb-19 08:56N 55°01' W 005°07'716.7
2018-Feb-19 08:30N 54°59' W 005°18'918.7
2018-Feb-19 08:00N 54°54' W 005°33'917.3
2018-Feb-19 07:28N 54°51' W 005°48'0 0.3
2018-Feb-19 07:00N 54°51' W 005°48'0 0.0
2018-Feb-19 06:30N 54°51' W 005°48'0 0.0
2018-Feb-19 05:57N 54°51' W 005°48'2 5.0
2018-Feb-19 05:29N 54°53' W 005°45'817.6
2018-Feb-19 05:00N 54°57' W 005°32'917.2
2018-Feb-19 04:30N 54°60' W 005°18'914.2
2018-Feb-19 03:52N 54°59' W 005°03'1 0.7
2018-Feb-19 01:44N 54°58' W 005°01'512.5
2018-Feb-19 01:19N 55°02' W 005°08'618.1
2018-Feb-19 01:00N 54°59' W 005°16'917.6
2018-Feb-19 00:30N 54°55' W 005°30'918.1
2018-Feb-19 00:01N 54°52' W 005°45'2 4.6
2018-Feb-18 23:30N 54°51' W 005°48'0 0.0
2018-Feb-18 23:00N 54°51' W 005°48'0 0.0
2018-Feb-18 22:31N 54°51' W 005°48'0 0.0
2018-Feb-18 22:01N 54°51' W 005°48'4 7.7
2018-Feb-18 21:29N 54°53' W 005°42'816.8
2018-Feb-18 21:00N 54°57' W 005°29'817.2
2018-Feb-18 20:30N 55°00' W 005°16'813.6
2018-Feb-18 19:56N 54°59' W 005°03'1 1.0
2018-Feb-18 18:31N 54°58' W 005°01'0 0.2
2018-Feb-18 18:28N 54°58' W 005°01'5 9.0
2018-Feb-18 17:53N 55°02' W 005°07'617.2
2018-Feb-18 17:30N 54°59' W 005°18'918.2
2018-Feb-18 17:00N 54°55' W 005°32'917.2
2018-Feb-18 16:27N 54°52' W 005°48'1 2.0
2018-Feb-18 16:00N 54°51' W 005°48'0 0.0
2018-Feb-18 15:30N 54°51' W 005°48'2 4.9
2018-Feb-18 15:00N 54°52' W 005°45'918.1
2018-Feb-18 14:30N 54°57' W 005°31'1117.1
2018-Feb-18 13:51N 55°01' W 005°13'714.7
2018-Feb-18 13:24N 54°59' W 005°02'1 0.4
2018-Feb-18 10:21N 54°58' W 005°01'0 0.0
2018-Feb-18 09:47N 54°58' W 005°01'0 0.0
2018-Feb-18 09:22N 54°58' W 005°01'512.1
2018-Feb-18 08:56N 55°01' W 005°07'716.6
2018-Feb-18 08:31N 54°59' W 005°19'918.0
2018-Feb-18 08:00N 54°55' W 005°33'918.3
2018-Feb-18 07:30N 54°51' W 005°48'1 1.3
2018-Feb-18 07:00N 54°51' W 005°48'0 0.0
2018-Feb-18 06:30N 54°51' W 005°48'0 0.0
2018-Feb-18 06:00N 54°51' W 005°48'0 0.0
2018-Feb-18 05:30N 54°51' W 005°48'0 0.0
2018-Feb-18 05:00N 54°51' W 005°48'0 0.0
2018-Feb-18 04:30N 54°51' W 005°48'0 0.0
2018-Feb-18 04:00N 54°51' W 005°48'0 0.0
2018-Feb-18 03:30N 54°51' W 005°48'0 0.0
2018-Feb-18 03:00N 54°51' W 005°48'0 0.0
2018-Feb-18 02:30N 54°51' W 005°48'0 0.0
2018-Feb-18 02:00N 54°51' W 005°48'0 0.0
2018-Feb-18 01:30N 54°51' W 005°48'0 0.0
2018-Feb-18 01:00N 54°51' W 005°48'0 0.0
2018-Feb-18 00:30N 54°51' W 005°48'0 0.0
2018-Feb-18 00:00N 54°51' W 005°48'0 0.0
2018-Feb-17 23:27N 54°51' W 005°48'0 0.0
2018-Feb-17 23:00N 54°51' W 005°48'0 0.0
2018-Feb-17 22:24N 54°51' W 005°48'0 0.0
2018-Feb-17 22:00N 54°51' W 005°48'3 6.8
2018-Feb-17 21:30N 54°53' W 005°43'817.0
2018-Feb-17 21:00N 54°56' W 005°30'917.4
2018-Feb-17 20:30N 54°60' W 005°16'813.7
2018-Feb-17 19:57N 54°59' W 005°03'2 3.6
2018-Feb-17 19:29N 54°58' W 005°01'0 0.0
2018-Feb-17 18:44N 54°58' W 005°01'0 0.4
2018-Feb-17 18:19N 54°58' W 005°01'511.1
2018-Feb-17 17:50N 55°01' W 005°08'617.7
2018-Feb-17 17:30N 54°60' W 005°18'918.6
2018-Feb-17 17:01N 54°55' W 005°32'1018.3
2018-Feb-17 16:29N 54°52' W 005°47'1 1.7
2018-Feb-17 15:58N 54°51' W 005°48'0 0.0
2018-Feb-17 15:28N 54°51' W 005°48'5 9.5
2018-Feb-17 14:58N 54°53' W 005°41'817.2
2018-Feb-17 14:30N 54°58' W 005°30'816.8
2018-Feb-17 14:00N 55°01' W 005°16'814.4
2018-Feb-17 13:28N 54°59' W 005°02'1 2.6
2018-Feb-17 12:56N 54°58' W 005°01'0 0.0
2018-Feb-17 12:29N 54°58' W 005°01'6 9.2
2018-Feb-17 11:51N 55°02' W 005°08'618.2
2018-Feb-17 11:31N 54°59' W 005°18'918.4
2018-Feb-17 11:01N 54°55' W 005°33'917.5
2018-Feb-17 10:29N 54°51' W 005°48'1 1.1
2018-Feb-17 10:00N 54°51' W 005°48'0 0.0
2018-Feb-17 09:30N 54°51' W 005°48'5 9.0
2018-Feb-17 09:00N 54°53' W 005°41'816.2
2018-Feb-17 08:30N 54°57' W 005°29'816.7
2018-Feb-17 08:00N 55°01' W 005°16'814.2
2018-Feb-17 07:28N 54°59' W 005°03'2 1.0
2018-Feb-17 05:50N 54°58' W 005°01'511.7
2018-Feb-17 05:22N 55°02' W 005°08'616.1
2018-Feb-17 05:01N 54°59' W 005°17'918.3
2018-Feb-17 04:30N 54°55' W 005°31'917.8
2018-Feb-17 03:59N 54°52' W 005°47'2 3.1
2018-Feb-17 03:30N 54°51' W 005°48'0 0.0
2018-Feb-17 03:00N 54°51' W 005°48'0 0.0
2018-Feb-17 02:30N 54°51' W 005°48'0 0.0
2018-Feb-17 02:00N 54°51' W 005°48'611.6
2018-Feb-17 01:27N 54°55' W 005°39'817.3
2018-Feb-17 01:00N 54°58' W 005°27'1414.3
2018-Feb-17 00:01N 54°59' W 005°02'015.9
2018-Feb-17 00:00N 54°59' W 005°02'1 0.5
2018-Feb-16 21:47N 54°58' W 005°01'512.1
2018-Feb-16 21:21N 55°02' W 005°08'619.0
2018-Feb-16 21:00N 54°59' W 005°18'1020.8
2018-Feb-16 20:30N 54°55' W 005°34'917.1
2018-Feb-16 20:00N 54°51' W 005°48'0 0.2
2018-Feb-16 19:29N 54°51' W 005°48'0 0.0
2018-Feb-16 18:56N 54°51' W 005°48'0 0.0
2018-Feb-16 18:30N 54°51' W 005°48'712.6
2018-Feb-16 17:57N 54°54' W 005°38'816.8
2018-Feb-16 17:30N 54°58' W 005°26'1414.7
2018-Feb-16 16:35N 54°59' W 005°02'114.9
2018-Feb-16 16:30N 54°58' W 005°01'0 0.1
2018-Feb-16 15:47N 54°58' W 005°01'0 0.0
2018-Feb-16 15:23N 54°58' W 005°01'610.6
2018-Feb-16 14:51N 55°02' W 005°08'720.6
2018-Feb-16 14:30N 54°58' W 005°19'1019.1
2018-Feb-16 14:00N 54°54' W 005°34'816.1
2018-Feb-16 13:29N 54°51' W 005°48'0 0.4
2018-Feb-16 13:00N 54°51' W 005°48'0 0.0
2018-Feb-16 12:30N 54°51' W 005°48'611.5
2018-Feb-16 11:58N 54°54' W 005°39'817.6
2018-Feb-16 11:30N 54°58' W 005°27'1414.2
2018-Feb-16 10:32N 54°59' W 005°03'015.6
2018-Feb-16 10:31N 54°59' W 005°02'1 0.9
2018-Feb-16 09:23N 54°58' W 005°01'512.7
2018-Feb-16 08:59N 55°02' W 005°07'817.1
2018-Feb-16 08:30N 54°58' W 005°20'918.9
2018-Feb-16 08:00N 54°54' W 005°35'816.2
2018-Feb-16 07:30N 54°51' W 005°48'0 0.1
2018-Feb-16 06:59N 54°51' W 005°48'0 0.0
2018-Feb-16 06:29N 54°51' W 005°48'0 0.0
2018-Feb-16 05:59N 54°51' W 005°48'711.4
2018-Feb-16 05:23N 54°54' W 005°38'616.9
2018-Feb-16 05:00N 54°57' W 005°28'1017.0
2018-Feb-16 04:24N 55°02' W 005°12'614.4
2018-Feb-16 03:59N 54°59' W 005°02'1 0.7
2018-Feb-16 01:52N 54°58' W 005°01'611.1
2018-Feb-16 01:20N 55°01' W 005°09'619.0
2018-Feb-16 01:00N 54°59' W 005°19'918.2
2018-Feb-16 00:30N 54°55' W 005°33'918.0
2018-Feb-16 00:00N 54°52' W 005°48'1 1.6
2018-Feb-15 23:29N 54°51' W 005°48'0 0.0
2018-Feb-15 22:59N 54°51' W 005°48'0 0.0
2018-Feb-15 22:29N 54°51' W 005°48'0 0.0
2018-Feb-15 22:00N 54°51' W 005°48'611.8
2018-Feb-15 21:30N 54°54' W 005°39'817.0
2018-Feb-15 21:00N 54°58' W 005°26'1313.1
2018-Feb-15 19:59N 54°59' W 005°02'1 1.1
2018-Feb-15 18:45N 54°58' W 005°01'0 0.0
2018-Feb-15 18:28N 54°58' W 005°01'6 9.6
2018-Feb-15 17:52N 55°01' W 005°09'617.4
2018-Feb-15 17:31N 54°59' W 005°18'918.4
2018-Feb-15 17:00N 54°55' W 005°33'917.1
2018-Feb-15 16:28N 54°51' W 005°48'0 0.4
2018-Feb-15 15:59N 54°51' W 005°48'0 0.0
2018-Feb-15 15:29N 54°51' W 005°48'4 8.8
2018-Feb-15 15:00N 54°53' W 005°42'917.2
2018-Feb-15 14:30N 54°57' W 005°29'916.3
2018-Feb-15 13:59N 55°01' W 005°15'713.5
2018-Feb-15 13:26N 54°59' W 005°02'1 1.3
2018-Feb-15 12:24N 54°58' W 005°01'611.2
2018-Feb-15 11:54N 55°02' W 005°08'718.0
2018-Feb-15 11:30N 54°59' W 005°19'917.5
2018-Feb-15 11:00N 54°55' W 005°33'917.0
2018-Feb-15 10:28N 54°51' W 005°48'0 0.4
2018-Feb-15 10:00N 54°51' W 005°48'0 0.0
2018-Feb-15 09:30N 54°51' W 005°48'510.3
2018-Feb-15 08:58N 54°54' W 005°40'818.0
2018-Feb-15 08:31N 54°58' W 005°27'1116.2
2018-Feb-15 07:50N 55°02' W 005°10'514.8
2018-Feb-15 07:29N 54°59' W 005°03'2 1.3
2018-Feb-15 06:05N 54°58' W 005°01'0 0.0
2018-Feb-15 05:56N 54°58' W 005°01'510.9
2018-Feb-15 05:26N 55°01' W 005°08'715.5
2018-Feb-15 05:00N 54°59' W 005°19'918.3
2018-Feb-15 04:31N 54°55' W 005°33'917.9
2018-Feb-15 04:00N 54°51' W 005°48'1 1.0
2018-Feb-15 03:24N 54°51' W 005°48'0 0.0
2018-Feb-15 02:57N 54°51' W 005°48'0 0.0
2018-Feb-15 02:30N 54°51' W 005°48'0 0.0
2018-Feb-15 02:00N 54°51' W 005°48'5 9.6
2018-Feb-15 01:26N 54°54' W 005°40'717.2
2018-Feb-15 01:00N 54°57' W 005°28'816.7
2018-Feb-15 00:31N 55°00' W 005°15'713.9
2018-Feb-14 23:58N 54°59' W 005°02'1 0.7
2018-Feb-14 22:08N 54°58' W 005°01'0 0.0
2018-Feb-14 22:00N 54°58' W 005°01'5 8.3
2018-Feb-14 21:22N 55°02' W 005°07'719.1
2018-Feb-14 21:00N 54°59' W 005°18'1020.1
2018-Feb-14 20:30N 54°54' W 005°34'917.3
2018-Feb-14 20:00N 54°51' W 005°48'0 0.2
2018-Feb-14 19:30N 54°51' W 005°48'0 0.0
2018-Feb-14 19:00N 54°51' W 005°48'0 0.0
2018-Feb-14 18:30N 54°51' W 005°48'611.6
2018-Feb-14 18:00N 54°54' W 005°39'816.8
2018-Feb-14 17:30N 54°58' W 005°27'816.5
2018-Feb-14 17:00N 55°01' W 005°13'713.9
2018-Feb-14 16:31N 54°58' W 005°02'1 1.1
2018-Feb-14 15:38N 54°58' W 005°01'0 0.0
2018-Feb-14 15:26N 54°58' W 005°01'5 9.5
2018-Feb-14 14:52N 55°02' W 005°08'718.9
2018-Feb-14 14:30N 54°60' W 005°19'1019.5
2018-Feb-14 14:00N 54°55' W 005°34'917.6
2018-Feb-14 13:31N 54°51' W 005°48'0 0.3
2018-Feb-14 12:59N 54°51' W 005°48'0 0.0
2018-Feb-14 12:30N 54°51' W 005°48'1515.4
2018-Feb-14 11:34N 55°00' W 005°29'519.3
2018-Feb-14 11:18N 55°02' W 005°20'1117.7
2018-Feb-14 10:42N 54°59' W 005°03'1 1.2
2018-Feb-14 09:32N 54°58' W 005°01'0 0.5
2018-Feb-14 09:30N 54°58' W 005°01'712.1
2018-Feb-14 08:54N 55°02' W 005°11'920.5
2018-Feb-14 08:28N 55°01' W 005°27'1021.3
2018-Feb-14 07:58N 54°54' W 005°41'511.8
2018-Feb-14 07:30N 54°51' W 005°48'0 0.0
2018-Feb-14 06:59N 54°51' W 005°48'0 0.0
2018-Feb-14 06:29N 54°51' W 005°48'0 0.0
2018-Feb-14 06:00N 54°51' W 005°48'1013.4
2018-Feb-14 05:17N 54°58' W 005°36'618.1
2018-Feb-14 04:56N 55°01' W 005°26'1416.7
2018-Feb-14 04:06N 54°59' W 005°03'114.2
2018-Feb-14 04:00N 54°58' W 005°01'0 0.0
2018-Feb-14 01:51N 54°58' W 005°01'512.7
2018-Feb-14 01:25N 55°02' W 005°08'820.4
2018-Feb-14 01:01N 54°58' W 005°21'1019.4
2018-Feb-14 00:30N 54°54' W 005°37'714.3
2018-Feb-14 00:00N 54°51' W 005°48'0 0.1
2018-Feb-13 23:30N 54°51' W 005°48'0 0.0
2018-Feb-13 23:00N 54°51' W 005°48'0 0.0
2018-Feb-13 22:30N 54°51' W 005°48'0 0.0
2018-Feb-13 22:00N 54°51' W 005°48'4 9.1
2018-Feb-13 21:30N 54°53' W 005°41'817.0
2018-Feb-13 21:00N 54°57' W 005°28'816.7
2018-Feb-13 20:30N 55°01' W 005°15'713.4
2018-Feb-13 19:57N 54°59' W 005°02'1 0.9
2018-Feb-13 18:29N 54°58' W 005°01'610.8
2018-Feb-13 17:58N 55°01' W 005°08'816.7
2018-Feb-13 17:31N 54°58' W 005°20'918.1
2018-Feb-13 17:01N 54°55' W 005°35'816.6
2018-Feb-13 16:30N 54°51' W 005°48'0 0.3
2018-Feb-13 15:55N 54°51' W 005°48'0 0.0
2018-Feb-13 15:31N 54°51' W 005°48'5 9.9
2018-Feb-13 15:00N 54°54' W 005°41'917.3
2018-Feb-13 14:30N 54°58' W 005°28'816.6
2018-Feb-13 14:01N 55°01' W 005°14'713.6
2018-Feb-13 13:29N 54°59' W 005°02'1 2.0
2018-Feb-13 12:52N 54°58' W 005°01'0 0.0
2018-Feb-13 12:23N 54°58' W 005°01'611.1
2018-Feb-13 11:52N 55°01' W 005°09'617.3
2018-Feb-13 11:30N 54°59' W 005°19'917.1
2018-Feb-13 11:00N 54°55' W 005°32'1017.2
2018-Feb-13 10:27N 54°52' W 005°47'1 2.0
2018-Feb-13 10:00N 54°51' W 005°48'0 0.0
2018-Feb-13 09:30N 54°51' W 005°48'1 2.2
2018-Feb-13 09:00N 54°52' W 005°47'919.1
2018-Feb-13 08:30N 54°56' W 005°33'1019.7
2018-Feb-13 08:00N 55°02' W 005°18'916.5
2018-Feb-13 07:27N 54°59' W 005°03'2 1.0
2018-Feb-13 05:46N 54°58' W 005°01'610.6
2018-Feb-13 05:14N 55°02' W 005°08'519.5
2018-Feb-13 04:59N 55°01' W 005°17'918.7
2018-Feb-13 04:30N 54°57' W 005°31'1119.5
2018-Feb-13 03:56N 54°52' W 005°47'1 2.0
2018-Feb-13 03:29N 54°51' W 005°48'0 0.0
2018-Feb-13 02:59N 54°51' W 005°48'0 0.0
2018-Feb-13 02:23N 54°51' W 005°48'0 0.0
2018-Feb-13 02:00N 54°51' W 005°48'3 5.0
2018-Feb-13 01:30N 54°53' W 005°45'1117.4
2018-Feb-13 00:53N 54°59' W 005°29'617.3
2018-Feb-13 00:30N 55°01' W 005°18'915.9
2018-Feb-12 23:55N 54°59' W 005°02'1 0.8
2018-Feb-12 22:06N 54°58' W 005°01'0 0.0
2018-Feb-12 21:52N 54°58' W 005°01'610.0
2018-Feb-12 21:18N 55°02' W 005°08'619.3
2018-Feb-12 21:00N 54°59' W 005°17'918.9
2018-Feb-12 20:30N 54°55' W 005°32'1017.1
2018-Feb-12 19:56N 54°51' W 005°48'0 0.8
2018-Feb-12 19:30N 54°51' W 005°48'0 0.0
2018-Feb-12 19:00N 54°51' W 005°48'0 0.0
2018-Feb-12 18:30N 54°51' W 005°48'612.4
2018-Feb-12 18:00N 54°54' W 005°38'816.6
2018-Feb-12 17:30N 54°58' W 005°26'917.1
2018-Feb-12 16:57N 55°01' W 005°11'613.9
2018-Feb-12 16:31N 54°58' W 005°02'1 0.7
2018-Feb-12 15:38N 54°58' W 005°01'0 0.2
2018-Feb-12 15:26N 54°58' W 005°01'510.3
2018-Feb-12 14:55N 55°02' W 005°08'717.5
2018-Feb-12 14:31N 54°59' W 005°19'1018.1
2018-Feb-12 13:58N 54°54' W 005°35'816.9
2018-Feb-12 13:29N 54°51' W 005°48'1 1.1
2018-Feb-12 12:59N 54°51' W 005°48'0 0.0
2018-Feb-12 12:29N 54°51' W 005°48'610.9
2018-Feb-12 11:57N 54°54' W 005°39'817.3
2018-Feb-12 11:30N 54°58' W 005°27'1414.2
2018-Feb-12 10:30N 54°59' W 005°02'1 1.3
2018-Feb-12 09:25N 54°58' W 005°01'511.7
2018-Feb-12 08:58N 55°02' W 005°07'817.5
2018-Feb-12 08:31N 54°58' W 005°20'918.1
2018-Feb-12 08:00N 54°54' W 005°34'816.9
2018-Feb-12 07:30N 54°51' W 005°48'0 0.3
2018-Feb-12 06:55N 54°51' W 005°48'0 0.0
2018-Feb-12 06:28N 54°51' W 005°48'0 0.0
2018-Feb-12 06:00N 54°51' W 005°48'612.4
2018-Feb-12 05:30N 54°54' W 005°39'816.2
2018-Feb-12 05:00N 54°58' W 005°26'1413.9
2018-Feb-12 04:02N 54°59' W 005°02'013.2
2018-Feb-12 04:00N 54°59' W 005°02'1 0.5
2018-Feb-12 01:57N 54°58' W 005°01'510.7
2018-Feb-12 01:26N 55°01' W 005°08'818.6
2018-Feb-12 01:01N 54°58' W 005°20'918.4
2018-Feb-12 00:30N 54°54' W 005°35'816.1
2018-Feb-12 00:00N 54°51' W 005°48'0 0.2
2018-Feb-11 23:25N 54°51' W 005°48'0 0.0
2018-Feb-11 22:58N 54°51' W 005°48'0 0.0
2018-Feb-11 22:28N 54°51' W 005°48'0 0.0
2018-Feb-11 21:58N 54°51' W 005°48'4 8.4
2018-Feb-11 21:30N 54°53' W 005°42'917.8
2018-Feb-11 21:00N 54°57' W 005°29'917.5
2018-Feb-11 20:30N 55°01' W 005°15'712.4
2018-Feb-11 19:56N 54°59' W 005°02'1 1.3
2018-Feb-11 18:48N 54°58' W 005°01'0 0.1
2018-Feb-11 18:19N 54°58' W 005°01'612.3
2018-Feb-11 17:50N 55°01' W 005°09'618.6
2018-Feb-11 17:30N 54°59' W 005°18'1020.3
2018-Feb-11 17:00N 54°55' W 005°35'917.1
2018-Feb-11 16:30N 54°51' W 005°48'0 0.1
2018-Feb-11 15:57N 54°51' W 005°48'0 0.0
2018-Feb-11 15:30N 54°51' W 005°48'4 7.3
2018-Feb-11 15:00N 54°53' W 005°43'1019.5
2018-Feb-11 14:30N 54°57' W 005°28'1019.5
2018-Feb-11 14:00N 55°01' W 005°12'713.2
2018-Feb-11 13:30N 54°58' W 005°02'1 0.2
2018-Feb-11 09:27N 54°58' W 005°01'610.9
2018-Feb-11 08:56N 55°01' W 005°08'818.0
2018-Feb-11 08:30N 54°58' W 005°20'918.0
2018-Feb-11 08:01N 54°54' W 005°34'816.7
2018-Feb-11 07:31N 54°51' W 005°48'0 0.3
2018-Feb-11 07:00N 54°51' W 005°48'0 0.0
2018-Feb-11 06:30N 54°51' W 005°48'0 0.0
2018-Feb-11 06:00N 54°51' W 005°48'0 0.0
2018-Feb-11 05:30N 54°51' W 005°48'0 0.0
2018-Feb-11 04:57N 54°51' W 005°48'0 0.0
2018-Feb-11 04:30N 54°51' W 005°48'0 0.0
2018-Feb-11 04:00N 54°51' W 005°48'0 0.0
2018-Feb-11 03:30N 54°51' W 005°48'0 0.0
2018-Feb-11 02:57N 54°51' W 005°48'0 0.0
2018-Feb-11 02:30N 54°51' W 005°48'0 0.0
2018-Feb-11 02:00N 54°51' W 005°48'0 0.0
2018-Feb-11 01:30N 54°51' W 005°48'0 0.0
2018-Feb-11 01:00N 54°51' W 005°48'0 0.0
2018-Feb-11 00:30N 54°51' W 005°48'0 0.0
2018-Feb-11 00:00N 54°51' W 005°48'0 0.0
2018-Feb-10 23:30N 54°51' W 005°48'0 0.0
2018-Feb-10 23:00N 54°51' W 005°48'0 0.0
2018-Feb-10 22:30N 54°51' W 005°48'0 0.0
2018-Feb-10 22:00N 54°51' W 005°48'4 8.7
2018-Feb-10 21:30N 54°53' W 005°42'917.7
2018-Feb-10 21:00N 54°57' W 005°28'918.0
2018-Feb-10 20:31N 55°01' W 005°14'714.5
2018-Feb-10 20:00N 54°58' W 005°02'1 0.4
2018-Feb-10 18:18N 54°58' W 005°01'612.2
2018-Feb-10 17:51N 55°01' W 005°08'617.0
2018-Feb-10 17:31N 54°59' W 005°17'917.7
2018-Feb-10 17:00N 54°56' W 005°31'1018.1
2018-Feb-10 16:27N 54°52' W 005°47'1 1.8
2018-Feb-10 15:59N 54°51' W 005°48'0 0.0
2018-Feb-10 15:29N 54°51' W 005°48'4 8.0
2018-Feb-10 15:00N 54°53' W 005°42'916.9
2018-Feb-10 14:30N 54°57' W 005°29'816.4
2018-Feb-10 14:00N 55°00' W 005°16'813.8
2018-Feb-10 13:25N 54°59' W 005°02'1 1.2
2018-Feb-10 12:22N 54°58' W 005°01'511.8
2018-Feb-10 11:55N 55°01' W 005°07'818.2
2018-Feb-10 11:30N 54°58' W 005°19'918.4
2018-Feb-10 11:00N 54°54' W 005°34'916.8
2018-Feb-10 10:30N 54°51' W 005°48'1 1.4
2018-Feb-10 10:00N 54°51' W 005°48'0 0.0
2018-Feb-10 09:30N 54°51' W 005°48'4 9.0
2018-Feb-10 09:00N 54°53' W 005°41'919.0
2018-Feb-10 08:30N 54°58' W 005°27'1018.5
2018-Feb-10 07:59N 55°01' W 005°11'714.6
2018-Feb-10 07:30N 54°58' W 005°01'0 0.0
2018-Feb-10 05:46N 54°58' W 005°01'611.7
2018-Feb-10 05:17N 55°01' W 005°08'621.4
2018-Feb-10 05:00N 54°59' W 005°17'1122.2
2018-Feb-10 04:31N 54°54' W 005°35'816.4
2018-Feb-10 04:00N 54°51' W 005°48'0 0.0
2018-Feb-10 03:27N 54°51' W 005°48'0 0.0
2018-Feb-10 03:00N 54°51' W 005°48'0 0.0
2018-Feb-10 02:27N 54°51' W 005°48'0 0.0
2018-Feb-10 02:00N 54°51' W 005°48'611.8
2018-Feb-10 01:28N 54°54' W 005°38'816.6
2018-Feb-10 00:59N 54°58' W 005°26'916.8
2018-Feb-10 00:27N 55°01' W 005°11'614.0
2018-Feb-10 00:00N 54°58' W 005°02'1 1.9
2018-Feb-09 23:30N 54°58' W 005°01'0 0.0
2018-Feb-09 22:59N 54°58' W 005°01'0 0.0
2018-Feb-09 22:14N 54°58' W 005°01'10 1.3
2018-Feb-09 14:30N 54°59' W 005°18'1020.7
2018-Feb-09 14:00N 54°55' W 005°35'917.0
2018-Feb-09 13:31N 54°51' W 005°48'13 6.7
2018-Feb-09 11:30N 54°57' W 005°27'  
Track history (hours):
 
Tides and Currents Weather Stations Pressure Air Temp Water Temp Dewpoint Dewpoint Depression Visibility Wind Speed Wind Dir Waves Ship Positions

European Highlander

Operator: P&O Irish Sea Ltd

Last reported at 2018-Feb-19 09:26 UTC. Time now 2018-Feb-19 10:15 UTC.
Position N 54°58' W 005°01'.

Length 161 m; draft 5.2 m.

Type: Passenger vessel. MMSI: 311404000.

Date/timePositionNaut miles runAvg speedWind from/ knotsBaromVisibWave heightAir tempDewpointWater temp
2018-Feb-19 09:26N 54°58' W 005°01'510.1
2018-Feb-19 08:56N 55°01' W 005°07'716.7
2018-Feb-19 08:30N 54°59' W 005°18'918.7
2018-Feb-19 08:00N 54°54' W 005°33'917.3
2018-Feb-19 07:28N 54°51' W 005°48'0 0.3
2018-Feb-19 07:00N 54°51' W 005°48'0 0.0
2018-Feb-19 06:30N 54°51' W 005°48'0 0.0
2018-Feb-19 05:57N 54°51' W 005°48'2 5.0
2018-Feb-19 05:29N 54°53' W 005°45'817.6
2018-Feb-19 05:00N 54°57' W 005°32'917.2
2018-Feb-19 04:30N 54°60' W 005°18'914.2
2018-Feb-19 03:52N 54°59' W 005°03'1 0.7
2018-Feb-19 01:44N 54°58' W 005°01'512.5
2018-Feb-19 01:19N 55°02' W 005°08'618.1
2018-Feb-19 01:00N 54°59' W 005°16'917.6
2018-Feb-19 00:30N 54°55' W 005°30'918.1
2018-Feb-19 00:01N 54°52' W 005°45'2 4.6
2018-Feb-18 23:30N 54°51' W 005°48'0 0.0
2018-Feb-18 23:00N 54°51' W 005°48'0 0.0
2018-Feb-18 22:31N 54°51' W 005°48'0 0.0
2018-Feb-18 22:01N 54°51' W 005°48'4 7.7
2018-Feb-18 21:29N 54°53' W 005°42'816.8
2018-Feb-18 21:00N 54°57' W 005°29'817.2
2018-Feb-18 20:30N 55°00' W 005°16'813.6
2018-Feb-18 19:56N 54°59' W 005°03'1 1.0
2018-Feb-18 18:31N 54°58' W 005°01'0 0.2
2018-Feb-18 18:28N 54°58' W 005°01'5 9.0
2018-Feb-18 17:53N 55°02' W 005°07'617.2
2018-Feb-18 17:30N 54°59' W 005°18'918.2
2018-Feb-18 17:00N 54°55' W 005°32'917.2
2018-Feb-18 16:27N 54°52' W 005°48'1 2.0
2018-Feb-18 16:00N 54°51' W 005°48'0 0.0
2018-Feb-18 15:30N 54°51' W 005°48'2 4.9
2018-Feb-18 15:00N 54°52' W 005°45'918.1
2018-Feb-18 14:30N 54°57' W 005°31'1117.1
2018-Feb-18 13:51N 55°01' W 005°13'714.7
2018-Feb-18 13:24N 54°59' W 005°02'1 0.4
2018-Feb-18 10:21N 54°58' W 005°01'0 0.0
2018-Feb-18 09:47N 54°58' W 005°01'0 0.0
2018-Feb-18 09:22N 54°58' W 005°01'512.1
2018-Feb-18 08:56N 55°01' W 005°07'716.6
2018-Feb-18 08:31N 54°59' W 005°19'918.0
2018-Feb-18 08:00N 54°55' W 005°33'918.3
2018-Feb-18 07:30N 54°51' W 005°48'1 1.3
2018-Feb-18 07:00N 54°51' W 005°48'0 0.0
2018-Feb-18 06:30N 54°51' W 005°48'0 0.0
2018-Feb-18 06:00N 54°51' W 005°48'0 0.0
2018-Feb-18 05:30N 54°51' W 005°48'0 0.0
2018-Feb-18 05:00N 54°51' W 005°48'0 0.0
2018-Feb-18 04:30N 54°51' W 005°48'0 0.0
2018-Feb-18 04:00N 54°51' W 005°48'0 0.0
2018-Feb-18 03:30N 54°51' W 005°48'0 0.0
2018-Feb-18 03:00N 54°51' W 005°48'0 0.0
2018-Feb-18 02:30N 54°51' W 005°48'0 0.0
2018-Feb-18 02:00N 54°51' W 005°48'0 0.0
2018-Feb-18 01:30N 54°51' W 005°48'0 0.0
2018-Feb-18 01:00N 54°51' W 005°48'0 0.0
2018-Feb-18 00:30N 54°51' W 005°48'0 0.0
2018-Feb-18 00:00N 54°51' W 005°48'0 0.0
2018-Feb-17 23:27N 54°51' W 005°48'0 0.0
2018-Feb-17 23:00N 54°51' W 005°48'0 0.0
2018-Feb-17 22:24N 54°51' W 005°48'0 0.0
2018-Feb-17 22:00N 54°51' W 005°48'3 6.8
2018-Feb-17 21:30N 54°53' W 005°43'817.0
2018-Feb-17 21:00N 54°56' W 005°30'917.4
2018-Feb-17 20:30N 54°60' W 005°16'813.7
2018-Feb-17 19:57N 54°59' W 005°03'2 3.6
2018-Feb-17 19:29N 54°58' W 005°01'0 0.0
2018-Feb-17 18:44N 54°58' W 005°01'0 0.4
2018-Feb-17 18:19N 54°58' W 005°01'511.1
2018-Feb-17 17:50N 55°01' W 005°08'617.7
2018-Feb-17 17:30N 54°60' W 005°18'918.6
2018-Feb-17 17:01N 54°55' W 005°32'1018.3
2018-Feb-17 16:29N 54°52' W 005°47'1 1.7
2018-Feb-17 15:58N 54°51' W 005°48'0 0.0
2018-Feb-17 15:28N 54°51' W 005°48'5 9.5
2018-Feb-17 14:58N 54°53' W 005°41'817.2
2018-Feb-17 14:30N 54°58' W 005°30'816.8
2018-Feb-17 14:00N 55°01' W 005°16'814.4
2018-Feb-17 13:28N 54°59' W 005°02'1 2.6
2018-Feb-17 12:56N 54°58' W 005°01'0 0.0
2018-Feb-17 12:29N 54°58' W 005°01'6 9.2
2018-Feb-17 11:51N 55°02' W 005°08'618.2
2018-Feb-17 11:31N 54°59' W 005°18'918.4
2018-Feb-17 11:01N 54°55' W 005°33'917.5
2018-Feb-17 10:29N 54°51' W 005°48'1 1.1
2018-Feb-17 10:00N 54°51' W 005°48'0 0.0
2018-Feb-17 09:30N 54°51' W 005°48'5 9.0
2018-Feb-17 09:00N 54°53' W 005°41'816.2
2018-Feb-17 08:30N 54°57' W 005°29'816.7
2018-Feb-17 08:00N 55°01' W 005°16'814.2
2018-Feb-17 07:28N 54°59' W 005°03'2 1.0
2018-Feb-17 05:50N 54°58' W 005°01'511.7
2018-Feb-17 05:22N 55°02' W 005°08'616.1
2018-Feb-17 05:01N 54°59' W 005°17'918.3
2018-Feb-17 04:30N 54°55' W 005°31'917.8
2018-Feb-17 03:59N 54°52' W 005°47'2 3.1
2018-Feb-17 03:30N 54°51' W 005°48'0 0.0
2018-Feb-17 03:00N 54°51' W 005°48'0 0.0
2018-Feb-17 02:30N 54°51' W 005°48'0 0.0
2018-Feb-17 02:00N 54°51' W 005°48'611.6
2018-Feb-17 01:27N 54°55' W 005°39'817.3
2018-Feb-17 01:00N 54°58' W 005°27'1414.3
2018-Feb-17 00:01N 54°59' W 005°02'015.9
2018-Feb-17 00:00N 54°59' W 005°02'1 0.5
2018-Feb-16 21:47N 54°58' W 005°01'512.1
2018-Feb-16 21:21N 55°02' W 005°08'619.0
2018-Feb-16 21:00N 54°59' W 005°18'1020.8
2018-Feb-16 20:30N 54°55' W 005°34'917.1
2018-Feb-16 20:00N 54°51' W 005°48'0 0.2
2018-Feb-16 19:29N 54°51' W 005°48'0 0.0
2018-Feb-16 18:56N 54°51' W 005°48'0 0.0
2018-Feb-16 18:30N 54°51' W 005°48'712.6
2018-Feb-16 17:57N 54°54' W 005°38'816.8
2018-Feb-16 17:30N 54°58' W 005°26'1414.7
2018-Feb-16 16:35N 54°59' W 005°02'114.9
2018-Feb-16 16:30N 54°58' W 005°01'0 0.1
2018-Feb-16 15:47N 54°58' W 005°01'0 0.0
2018-Feb-16 15:23N 54°58' W 005°01'610.6
2018-Feb-16 14:51N 55°02' W 005°08'720.6
2018-Feb-16 14:30N 54°58' W 005°19'1019.1
2018-Feb-16 14:00N 54°54' W 005°34'816.1
2018-Feb-16 13:29N 54°51' W 005°48'0 0.4
2018-Feb-16 13:00N 54°51' W 005°48'0 0.0
2018-Feb-16 12:30N 54°51' W 005°48'611.5
2018-Feb-16 11:58N 54°54' W 005°39'817.6
2018-Feb-16 11:30N 54°58' W 005°27'1414.2
2018-Feb-16 10:32N 54°59' W 005°03'015.6
2018-Feb-16 10:31N 54°59' W 005°02'1 0.9
2018-Feb-16 09:23N 54°58' W 005°01'512.7
2018-Feb-16 08:59N 55°02' W 005°07'817.1
2018-Feb-16 08:30N 54°58' W 005°20'918.9
2018-Feb-16 08:00N 54°54' W 005°35'816.2
2018-Feb-16 07:30N 54°51' W 005°48'0 0.1
2018-Feb-16 06:59N 54°51' W 005°48'0 0.0
2018-Feb-16 06:29N 54°51' W 005°48'0 0.0
2018-Feb-16 05:59N 54°51' W 005°48'711.4
2018-Feb-16 05:23N 54°54' W 005°38'616.9
2018-Feb-16 05:00N 54°57' W 005°28'1017.0
2018-Feb-16 04:24N 55°02' W 005°12'614.4
2018-Feb-16 03:59N 54°59' W 005°02'1 0.7
2018-Feb-16 01:52N 54°58' W 005°01'611.1
2018-Feb-16 01:20N 55°01' W 005°09'619.0
2018-Feb-16 01:00N 54°59' W 005°19'918.2
2018-Feb-16 00:30N 54°55' W 005°33'918.0
2018-Feb-16 00:00N 54°52' W 005°48'1 1.6
2018-Feb-15 23:29N 54°51' W 005°48'0 0.0
2018-Feb-15 22:59N 54°51' W 005°48'0 0.0
2018-Feb-15 22:29N 54°51' W 005°48'0 0.0
2018-Feb-15 22:00N 54°51' W 005°48'611.8
2018-Feb-15 21:30N 54°54' W 005°39'817.0
2018-Feb-15 21:00N 54°58' W 005°26'1313.1
2018-Feb-15 19:59N 54°59' W 005°02'1 1.1
2018-Feb-15 18:45N 54°58' W 005°01'0 0.0
2018-Feb-15 18:28N 54°58' W 005°01'6 9.6
2018-Feb-15 17:52N 55°01' W 005°09'617.4
2018-Feb-15 17:31N 54°59' W 005°18'918.4
2018-Feb-15 17:00N 54°55' W 005°33'917.1
2018-Feb-15 16:28N 54°51' W 005°48'0 0.4
2018-Feb-15 15:59N 54°51' W 005°48'0 0.0
2018-Feb-15 15:29N 54°51' W 005°48'4 8.8
2018-Feb-15 15:00N 54°53' W 005°42'917.2
2018-Feb-15 14:30N 54°57' W 005°29'916.3
2018-Feb-15 13:59N 55°01' W 005°15'713.5
2018-Feb-15 13:26N 54°59' W 005°02'1 1.3
2018-Feb-15 12:24N 54°58' W 005°01'611.2
2018-Feb-15 11:54N 55°02' W 005°08'718.0
2018-Feb-15 11:30N 54°59' W 005°19'917.5
2018-Feb-15 11:00N 54°55' W 005°33'917.0
2018-Feb-15 10:28N 54°51' W 005°48'0 0.4
2018-Feb-15 10:00N 54°51' W 005°48'0 0.0
2018-Feb-15 09:30N 54°51' W 005°48'510.3
2018-Feb-15 08:58N 54°54' W 005°40'818.0
2018-Feb-15 08:31N 54°58' W 005°27'1116.2
2018-Feb-15 07:50N 55°02' W 005°10'514.8
2018-Feb-15 07:29N 54°59' W 005°03'2 1.3
2018-Feb-15 06:05N 54°58' W 005°01'0 0.0
2018-Feb-15 05:56N 54°58' W 005°01'510.9
2018-Feb-15 05:26N 55°01' W 005°08'715.5
2018-Feb-15 05:00N 54°59' W 005°19'918.3
2018-Feb-15 04:31N 54°55' W 005°33'917.9
2018-Feb-15 04:00N 54°51' W 005°48'1 1.0
2018-Feb-15 03:24N 54°51' W 005°48'0 0.0
2018-Feb-15 02:57N 54°51' W 005°48'0 0.0
2018-Feb-15 02:30N 54°51' W 005°48'0 0.0
2018-Feb-15 02:00N 54°51' W 005°48'5 9.6
2018-Feb-15 01:26N 54°54' W 005°40'717.2
2018-Feb-15 01:00N 54°57' W 005°28'816.7
2018-Feb-15 00:31N 55°00' W 005°15'713.9
2018-Feb-14 23:58N 54°59' W 005°02'1 0.7
2018-Feb-14 22:08N 54°58' W 005°01'0 0.0
2018-Feb-14 22:00N 54°58' W 005°01'5 8.3
2018-Feb-14 21:22N 55°02' W 005°07'719.1
2018-Feb-14 21:00N 54°59' W 005°18'1020.1
2018-Feb-14 20:30N 54°54' W 005°34'917.3
2018-Feb-14 20:00N 54°51' W 005°48'0 0.2
2018-Feb-14 19:30N 54°51' W 005°48'0 0.0
2018-Feb-14 19:00N 54°51' W 005°48'0 0.0
2018-Feb-14 18:30N 54°51' W 005°48'611.6
2018-Feb-14 18:00N 54°54' W 005°39'816.8
2018-Feb-14 17:30N 54°58' W 005°27'816.5
2018-Feb-14 17:00N 55°01' W 005°13'713.9
2018-Feb-14 16:31N 54°58' W 005°02'1 1.1
2018-Feb-14 15:38N 54°58' W 005°01'0 0.0
2018-Feb-14 15:26N 54°58' W 005°01'5 9.5
2018-Feb-14 14:52N 55°02' W 005°08'718.9
2018-Feb-14 14:30N 54°60' W 005°19'1019.5
2018-Feb-14 14:00N 54°55' W 005°34'917.6
2018-Feb-14 13:31N 54°51' W 005°48'0 0.3
2018-Feb-14 12:59N 54°51' W 005°48'0 0.0
2018-Feb-14 12:30N 54°51' W 005°48'1515.4
2018-Feb-14 11:34N 55°00' W 005°29'519.3
2018-Feb-14 11:18N 55°02' W 005°20'1117.7
2018-Feb-14 10:42N 54°59' W 005°03'1 1.2
2018-Feb-14 09:32N 54°58' W 005°01'0 0.5
2018-Feb-14 09:30N 54°58' W 005°01'712.1
2018-Feb-14 08:54N 55°02' W 005°11'920.5
2018-Feb-14 08:28N 55°01' W 005°27'1021.3
2018-Feb-14 07:58N 54°54' W 005°41'511.8
2018-Feb-14 07:30N 54°51' W 005°48'0 0.0
2018-Feb-14 06:59N 54°51' W 005°48'0 0.0
2018-Feb-14 06:29N 54°51' W 005°48'0 0.0
2018-Feb-14 06:00N 54°51' W 005°48'1013.4
2018-Feb-14 05:17N 54°58' W 005°36'618.1
2018-Feb-14 04:56N 55°01' W 005°26'1416.7
2018-Feb-14 04:06N 54°59' W 005°03'114.2
2018-Feb-14 04:00N 54°58' W 005°01'0 0.0
2018-Feb-14 01:51N 54°58' W 005°01'512.7
2018-Feb-14 01:25N 55°02' W 005°08'820.4
2018-Feb-14 01:01N 54°58' W 005°21'1019.4
2018-Feb-14 00:30N 54°54' W 005°37'714.3
2018-Feb-14 00:00N 54°51' W 005°48'0 0.1
2018-Feb-13 23:30N 54°51' W 005°48'0 0.0
2018-Feb-13 23:00N 54°51' W 005°48'0 0.0
2018-Feb-13 22:30N 54°51' W 005°48'0 0.0
2018-Feb-13 22:00N 54°51' W 005°48'4 9.1
2018-Feb-13 21:30N 54°53' W 005°41'817.0
2018-Feb-13 21:00N 54°57' W 005°28'816.7
2018-Feb-13 20:30N 55°01' W 005°15'713.4
2018-Feb-13 19:57N 54°59' W 005°02'1 0.9
2018-Feb-13 18:29N 54°58' W 005°01'610.8
2018-Feb-13 17:58N 55°01' W 005°08'816.7
2018-Feb-13 17:31N 54°58' W 005°20'918.1
2018-Feb-13 17:01N 54°55' W 005°35'816.6
2018-Feb-13 16:30N 54°51' W 005°48'0 0.3
2018-Feb-13 15:55N 54°51' W 005°48'0 0.0
2018-Feb-13 15:31N 54°51' W 005°48'5 9.9
2018-Feb-13 15:00N 54°54' W 005°41'917.3
2018-Feb-13 14:30N 54°58' W 005°28'816.6
2018-Feb-13 14:01N 55°01' W 005°14'713.6
2018-Feb-13 13:29N 54°59' W 005°02'1 2.0
2018-Feb-13 12:52N 54°58' W 005°01'0 0.0
2018-Feb-13 12:23N 54°58' W 005°01'611.1
2018-Feb-13 11:52N 55°01' W 005°09'617.3
2018-Feb-13 11:30N 54°59' W 005°19'917.1
2018-Feb-13 11:00N 54°55' W 005°32'1017.2
2018-Feb-13 10:27N 54°52' W 005°47'1 2.0
2018-Feb-13 10:00N 54°51' W 005°48'0 0.0
2018-Feb-13 09:30N 54°51' W 005°48'1 2.2
2018-Feb-13 09:00N 54°52' W 005°47'919.1
2018-Feb-13 08:30N 54°56' W 005°33'1019.7
2018-Feb-13 08:00N 55°02' W 005°18'916.5
2018-Feb-13 07:27N 54°59' W 005°03'2 1.0
2018-Feb-13 05:46N 54°58' W 005°01'610.6
2018-Feb-13 05:14N 55°02' W 005°08'519.5
2018-Feb-13 04:59N 55°01' W 005°17'918.7
2018-Feb-13 04:30N 54°57' W 005°31'1119.5
2018-Feb-13 03:56N 54°52' W 005°47'1 2.0
2018-Feb-13 03:29N 54°51' W 005°48'0 0.0
2018-Feb-13 02:59N 54°51' W 005°48'0 0.0
2018-Feb-13 02:23N 54°51' W 005°48'0 0.0
2018-Feb-13 02:00N 54°51' W 005°48'3 5.0
2018-Feb-13 01:30N 54°53' W 005°45'1117.4
2018-Feb-13 00:53N 54°59' W 005°29'617.3
2018-Feb-13 00:30N 55°01' W 005°18'915.9
2018-Feb-12 23:55N 54°59' W 005°02'1 0.8
2018-Feb-12 22:06N 54°58' W 005°01'0 0.0
2018-Feb-12 21:52N 54°58' W 005°01'610.0
2018-Feb-12 21:18N 55°02' W 005°08'619.3
2018-Feb-12 21:00N 54°59' W 005°17'918.9
2018-Feb-12 20:30N 54°55' W 005°32'1017.1
2018-Feb-12 19:56N 54°51' W 005°48'0 0.8
2018-Feb-12 19:30N 54°51' W 005°48'0 0.0
2018-Feb-12 19:00N 54°51' W 005°48'0 0.0
2018-Feb-12 18:30N 54°51' W 005°48'612.4
2018-Feb-12 18:00N 54°54' W 005°38'816.6
2018-Feb-12 17:30N 54°58' W 005°26'917.1
2018-Feb-12 16:57N 55°01' W 005°11'613.9
2018-Feb-12 16:31N 54°58' W 005°02'1 0.7
2018-Feb-12 15:38N 54°58' W 005°01'0 0.2
2018-Feb-12 15:26N 54°58' W 005°01'510.3
2018-Feb-12 14:55N 55°02' W 005°08'717.5
2018-Feb-12 14:31N 54°59' W 005°19'1018.1
2018-Feb-12 13:58N 54°54' W 005°35'816.9
2018-Feb-12 13:29N 54°51' W 005°48'1 1.1
2018-Feb-12 12:59N 54°51' W 005°48'0 0.0
2018-Feb-12 12:29N 54°51' W 005°48'610.9
2018-Feb-12 11:57N 54°54' W 005°39'817.3
2018-Feb-12 11:30N 54°58' W 005°27'1414.2
2018-Feb-12 10:30N 54°59' W 005°02'1 1.3
2018-Feb-12 09:25N 54°58' W 005°01'511.7
2018-Feb-12 08:58N 55°02' W 005°07'817.5
2018-Feb-12 08:31N 54°58' W 005°20'918.1
2018-Feb-12 08:00N 54°54' W 005°34'816.9
2018-Feb-12 07:30N 54°51' W 005°48'0 0.3
2018-Feb-12 06:55N 54°51' W 005°48'0 0.0
2018-Feb-12 06:28N 54°51' W 005°48'0 0.0
2018-Feb-12 06:00N 54°51' W 005°48'612.4
2018-Feb-12 05:30N 54°54' W 005°39'816.2
2018-Feb-12 05:00N 54°58' W 005°26'1413.9
2018-Feb-12 04:02N 54°59' W 005°02'013.2
2018-Feb-12 04:00N 54°59' W 005°02'1 0.5
2018-Feb-12 01:57N 54°58' W 005°01'510.7
2018-Feb-12 01:26N 55°01' W 005°08'818.6
2018-Feb-12 01:01N 54°58' W 005°20'918.4
2018-Feb-12 00:30N 54°54' W 005°35'816.1
2018-Feb-12 00:00N 54°51' W 005°48'0 0.2
2018-Feb-11 23:25N 54°51' W 005°48'0 0.0
2018-Feb-11 22:58N 54°51' W 005°48'0 0.0
2018-Feb-11 22:28N 54°51' W 005°48'0 0.0
2018-Feb-11 21:58N 54°51' W 005°48'4 8.4
2018-Feb-11 21:30N 54°53' W 005°42'917.8
2018-Feb-11 21:00N 54°57' W 005°29'917.5
2018-Feb-11 20:30N 55°01' W 005°15'712.4
2018-Feb-11 19:56N 54°59' W 005°02'1 1.3
2018-Feb-11 18:48N 54°58' W 005°01'0 0.1
2018-Feb-11 18:19N 54°58' W 005°01'612.3
2018-Feb-11 17:50N 55°01' W 005°09'618.6
2018-Feb-11 17:30N 54°59' W 005°18'1020.3
2018-Feb-11 17:00N 54°55' W 005°35'917.1
2018-Feb-11 16:30N 54°51' W 005°48'0 0.1
2018-Feb-11 15:57N 54°51' W 005°48'0 0.0
2018-Feb-11 15:30N 54°51' W 005°48'4 7.3
2018-Feb-11 15:00N 54°53' W 005°43'1019.5
2018-Feb-11 14:30N 54°57' W 005°28'1019.5
2018-Feb-11 14:00N 55°01' W 005°12'713.2
2018-Feb-11 13:30N 54°58' W 005°02'1 0.2
2018-Feb-11 09:27N 54°58' W 005°01'610.9
2018-Feb-11 08:56N 55°01' W 005°08'818.0
2018-Feb-11 08:30N 54°58' W 005°20'918.0
2018-Feb-11 08:01N 54°54' W 005°34'816.7
2018-Feb-11 07:31N 54°51' W 005°48'0 0.3
2018-Feb-11 07:00N 54°51' W 005°48'0 0.0
2018-Feb-11 06:30N 54°51' W 005°48'0 0.0
2018-Feb-11 06:00N 54°51' W 005°48'0 0.0
2018-Feb-11 05:30N 54°51' W 005°48'0 0.0
2018-Feb-11 04:57N 54°51' W 005°48'0 0.0
2018-Feb-11 04:30N 54°51' W 005°48'0 0.0
2018-Feb-11 04:00N 54°51' W 005°48'0 0.0
2018-Feb-11 03:30N 54°51' W 005°48'0 0.0
2018-Feb-11 02:57N 54°51' W 005°48'0 0.0
2018-Feb-11 02:30N 54°51' W 005°48'0 0.0
2018-Feb-11 02:00N 54°51' W 005°48'0 0.0
2018-Feb-11 01:30N 54°51' W 005°48'0 0.0
2018-Feb-11 01:00N 54°51' W 005°48'0 0.0
2018-Feb-11 00:30N 54°51' W 005°48'0 0.0
2018-Feb-11 00:00N 54°51' W 005°48'0 0.0
2018-Feb-10 23:30N 54°51' W 005°48'0 0.0
2018-Feb-10 23:00N 54°51' W 005°48'0 0.0
2018-Feb-10 22:30N 54°51' W 005°48'0 0.0
2018-Feb-10 22:00N 54°51' W 005°48'4 8.7
2018-Feb-10 21:30N 54°53' W 005°42'917.7
2018-Feb-10 21:00N 54°57' W 005°28'918.0
2018-Feb-10 20:31N 55°01' W 005°14'714.5
2018-Feb-10 20:00N 54°58' W 005°02'1 0.4
2018-Feb-10 18:18N 54°58' W 005°01'612.2
2018-Feb-10 17:51N 55°01' W 005°08'617.0
2018-Feb-10 17:31N 54°59' W 005°17'917.7
2018-Feb-10 17:00N 54°56' W 005°31'1018.1
2018-Feb-10 16:27N 54°52' W 005°47'1 1.8
2018-Feb-10 15:59N 54°51' W 005°48'0 0.0
2018-Feb-10 15:29N 54°51' W 005°48'4 8.0
2018-Feb-10 15:00N 54°53' W 005°42'916.9
2018-Feb-10 14:30N 54°57' W 005°29'816.4
2018-Feb-10 14:00N 55°00' W 005°16'813.8
2018-Feb-10 13:25N 54°59' W 005°02'1 1.2
2018-Feb-10 12:22N 54°58' W 005°01'511.8
2018-Feb-10 11:55N 55°01' W 005°07'818.2
2018-Feb-10 11:30N 54°58' W 005°19'918.4
2018-Feb-10 11:00N 54°54' W 005°34'916.8
2018-Feb-10 10:30N 54°51' W 005°48'1 1.4
2018-Feb-10 10:00N 54°51' W 005°48'0 0.0
2018-Feb-10 09:30N 54°51' W 005°48'4 9.0
2018-Feb-10 09:00N 54°53' W 005°41'919.0
2018-Feb-10 08:30N 54°58' W 005°27'1018.5
2018-Feb-10 07:59N 55°01' W 005°11'714.6
2018-Feb-10 07:30N 54°58' W 005°01'0 0.0
2018-Feb-10 05:46N 54°58' W 005°01'611.7
2018-Feb-10 05:17N 55°01' W 005°08'621.4
2018-Feb-10 05:00N 54°59' W 005°17'1122.2
2018-Feb-10 04:31N 54°54' W 005°35'816.4
2018-Feb-10 04:00N 54°51' W 005°48'0 0.0
2018-Feb-10 03:27N 54°51' W 005°48'0 0.0
2018-Feb-10 03:00N 54°51' W 005°48'0 0.0
2018-Feb-10 02:27N 54°51' W 005°48'0 0.0
2018-Feb-10 02:00N 54°51' W 005°48'611.8
2018-Feb-10 01:28N 54°54' W 005°38'816.6
2018-Feb-10 00:59N 54°58' W 005°26'916.8
2018-Feb-10 00:27N 55°01' W 005°11'614.0
2018-Feb-10 00:00N 54°58' W 005°02'1 1.9
2018-Feb-09 23:30N 54°58' W 005°01'0 0.0
2018-Feb-09 22:59N 54°58' W 005°01'0 0.0
2018-Feb-09 22:14N 54°58' W 005°01'10 1.3
2018-Feb-09 14:30N 54°59' W 005°18'1020.7
2018-Feb-09 14:00N 54°55' W 005°35'917.0
2018-Feb-09 13:31N 54°51' W 005°48'13 6.7
2018-Feb-09 11:30N 54°57' W 005°27'  

Dump ship's entire track history